Home > Products > Valid Products > TAF

000
FTUS44 KLCH 010900 AAB
TAFAEX
TAF AMD
KAEX 010936Z 0110/0206 09006KT P6SM VCTS SCT025CB BKN080
      TEMPO 0110/0112 4SM -TSRA BKN025CB
     FM011400 VRB05KT P6SM -SHRA VCTS BKN035CB
      TEMPO 0116/0120 3SM TSRA BKN025CB
     FM020200 VRB04KT P6SM SCT050 BKN200=



000
FTUS44 KLCH 010800 AAA
TAFBPT
TAF AMD
KBPT 010829Z 0108/0206 17004KT P6SM VCSH SCT090
     FM011000 24006KT P6SM VCSH SCT030 OVC100
     FM011400 26006KT P6SM -SHRA VCTS BKN035CB
      TEMPO 0115/0119 3SM TSRA BKN025CB
     FM020200 VRB05KT P6SM SCT050 BKN200=



000
FTUS44 KLCH 010800 AAA
TAFAEX
TAF AMD
KAEX 010828Z 0108/0206 11006KT P6SM VCSH OVC060
     FM011400 VRB05KT P6SM -SHRA VCTS BKN035CB
      TEMPO 0116/0120 3SM TSRA BKN025CB
     FM020200 VRB04KT P6SM SCT050 BKN200=



000
FTUS44 KLCH 010500
TAFLCH
TAF
KLCH 010520Z 0106/0206 VRB05KT P6SM VCSH SCT035 BKN120
     FM011200 23006KT P6SM VCSH SCT030 OVC100
     FM011500 25006KT P6SM -SHRA VCTS BKN035CB
      TEMPO 0116/0120 3SM TSRA BKN025CB
     FM020200 VRB04KT P6SM SCT050 BKN200=



000
FTUS44 KLCH 010500
TAFLFT
TAF
KLFT 010520Z 0106/0206 VRB03KT P6SM SCT050 BKN200
     FM011300 18005KT P6SM VCSH SCT040 BKN150
     FM011800 22006KT P6SM VCSH BKN050 PROB30 0118/0124 3SM TSRA
      BKN030CB
     FM020200 VRB03KT P6SM SCT050 BKN200=



000
FTUS44 KLCH 010500
TAFARA
TAF
KARA 010520Z 0106/0206 VRB05KT P6SM SCT050 BKN200
     FM011300 19005KT P6SM VCSH SCT040 BKN150
     FM011800 21008KT P6SM VCSH BKN050 PROB30 0118/0124 3SM TSRA
      BKN030CB
     FM020200 VRB03KT P6SM SCT050 BKN200=



000
FTUS44 KLCH 010500
TAFAEX
TAF
KAEX 010520Z 0106/0206 VRB05KT P6SM VCSH SCT040 BKN120
     FM011400 VRB05KT P6SM -SHRA VCTS BKN035CB
      TEMPO 0116/0120 3SM TSRA BKN025CB
     FM020200 VRB04KT P6SM SCT050 BKN200=



000
FTUS44 KLCH 010500
TAFBPT
TAF
KBPT 010520Z 0106/0206 18005KT P6SM -SHRA SCT030 BKN120
     FM011000 24006KT P6SM VCSH SCT030 OVC100
     FM011400 26006KT P6SM -SHRA VCTS BKN035CB
      TEMPO 0115/0119 3SM TSRA BKN025CB
     FM020200 VRB05KT P6SM SCT050 BKN200=



000
FTUS44 KLCH 010300 AAA
TAFBPT
TAF AMD
KBPT 010303Z 0103/0124 15006KT P6SM VCSH SCT030 BKN120
     FM011200 24007KT P6SM VCSH BKN040 PROB30 0113/0119 3SM -TSRA
      BKN030CB=



000
FTUS44 KLCH 312300
TAFARA
TAF
KARA 312325Z 0100/0124 VRB05KT P6SM SCT050 BKN200
     FM011300 19006KT P6SM VCSH SCT040 BKN150
     FM011800 22006KT P6SM VCSH BKN050 PROB30 0118/0124 3SM TSRA
      BKN030CB=



000
FTUS44 KLCH 312300
TAFAEX
TAF
KAEX 312325Z 0100/0124 07006KT P6SM VCSH SCT050 BKN120
     FM010200 VRB03KT P6SM VCSH SCT040 BKN120
     FM011200 VRB05KT P6SM VCSH BKN035 PROB30 0113/0119 3SM TSRA
      BKN025CB=



000
FTUS44 KLCH 312300
TAFLFT
TAF
KLFT 312325Z 0100/0124 VRB03KT P6SM SCT050 BKN200
     FM011300 18005KT P6SM VCSH SCT040 BKN150
     FM011800 22006KT P6SM VCSH BKN050 PROB30 0118/0124 3SM TSRA
      BKN030CB=



000
FTUS44 KLCH 312300
TAFBPT
TAF
KBPT 312325Z 0100/0124 16007KT P6SM SCT040 BKN200
     FM010900 VRB05KT P6SM VCSH SCT035 BKN150
     FM011200 24007KT P6SM VCSH BKN040 PROB30 0113/0119 3SM -TSRA
      BKN030CB=



000
FTUS44 KLCH 312300
TAFLCH
TAF
KLCH 312325Z 0100/0124 VRB05KT P6SM SCT035 BKN200
     FM011200 23006KT P6SM VCSH SCT030 OVC100 PROB30 0115/0121 3SM
      -TSRA BKN030CB=



000
FTUS44 KLCH 311700
TAFLCH
TAF
KLCH 311722Z 3118/0118 16008KT P6SM VCSH SCT050 BKN200
     FM010100 VRB03KT P6SM SCT030 BKN150
     FM011300 23006KT P6SM VCSH BKN040 PROB30 0114/0118 5SM -SHRA=



000
FTUS44 KLCH 311700
TAFARA
TAF
KARA 311722Z 3118/0118 09006KT P6SM BKN250
     FM312000 12006KT P6SM VCSH SCT050 BKN200
     FM010100 00000KT P6SM SCT030 BKN150
     FM011300 19005KT P6SM VCSH BKN040=



000
FTUS44 KLCH 311700
TAFBPT
TAF
KBPT 311722Z 3118/0118 15008KT P6SM VCSH SCT040 BKN200
     FM010100 16006KT P6SM SCT030 BKN150
     FM011300 24007KT P6SM VCSH BKN040 PROB30 0114/0118 5SM -SHRA=



000
FTUS44 KLCH 311700
TAFAEX
TAF
KAEX 311722Z 3118/0118 10006KT P6SM VCSH FEW050 SCT100
     FM010200 VRB03KT P6SM VCSH SCT040 BKN120
     FM011100 VRB04KT P6SM VCSH BKN030
     FM011400 VRB04KT P6SM VCSH BKN040 PROB30 0114/0118 4SM SHRA=



000
FTUS44 KLCH 311700
TAFLFT
TAF
KLFT 311722Z 3118/0118 08004KT P6SM BKN250
     FM312000 11005KT P6SM VCSH SCT050 BKN200
     FM010100 00000KT P6SM SCT030 BKN150
     FM011300 VRB03KT P6SM VCSH BKN040=



000
FTUS44 KLCH 311100
TAFLCH
TAF
KLCH 311122Z 3112/0112 15004KT P6SM BKN250
     FM311600 16008KT P6SM VCSH SCT040
     FM312000 17006KT P6SM VCTS BKN035CB
     FM010000 12004KT P6SM SCT030 PROB30 0100/0104 5SM TSRA
      BKN035CB=



000
FTUS44 KLCH 311100
TAFAEX
TAF
KAEX 311122Z 3112/0112 VRB04KT P6SM VCSH SCT040
     FM311600 12004KT P6SM VCTS SCT040CB BKN200
     FM311900 12006KT P6SM SCT030 BKN100
      TEMPO 3120/3124 3SM TSRA BKN030CB
     FM010200 VRB03KT P6SM VCSH SCT040=



000
FTUS44 KLCH 311100
TAFBPT
TAF
KBPT 311122Z 3112/0112 18005KT P6SM BKN250
     FM311600 17007KT P6SM VCSH SCT040
     FM312000 17006KT P6SM VCTS BKN035CB
     FM010000 12004KT P6SM SCT030 PROB30 0100/0104 5SM TSRA
      BKN035CB=



000
FTUS44 KLCH 311100
TAFLFT
TAF
KLFT 311122Z 3112/0112 VRB04KT P6SM SCT250
     FM312100 12005KT P6SM VCTS BKN040CB
     FM010100 VRB03KT P6SM BKN250=



000
FTUS44 KLCH 311100
TAFARA
TAF
KARA 311122Z 3112/0112 VRB04KT P6SM SCT250
     FM312100 14004KT P6SM VCTS BKN040CB
     FM010100 VRB03KT P6SM BKN250=



000
FTUS44 KLCH 310500
TAFAEX
TAF
KAEX 310520Z 3106/0106 VRB04KT P6SM BKN200
     FM311500 12005KT P6SM VCTS SCT040CB BKN200=



000
FTUS44 KLCH 310500
TAFBPT
TAF
KBPT 310520Z 3106/0106 15003KT P6SM SCT250
     FM311600 17007KT P6SM VCTS SCT030CB=



000
FTUS44 KLCH 310500
TAFARA
TAF
KARA 310520Z 3106/0106 VRB04KT P6SM SKC
     FM312100 11005KT P6SM VCTS SCT040CB BKN250=



000
FTUS44 KLCH 310500
TAFLCH
TAF
KLCH 310520Z 3106/0106 VRB03KT P6SM SCT250
     FM311600 16008KT P6SM VCTS SCT035CB=



000
FTUS44 KLCH 310500
TAFLFT
TAF
KLFT 310520Z 3106/0106 VRB04KT P6SM SKC
     FM312100 12005KT P6SM VCTS SCT040CB BKN250=



000
FTUS44 KLCH 302300
TAFAEX
TAF
KAEX 302320Z 3100/3124 VRB04KT P6SM BKN200
     FM311500 12006KT P6SM VCSH SCT040 BKN200=



000
FTUS44 KLCH 302300
TAFARA
TAF
KARA 302320Z 3100/3124 VRB04KT P6SM SKC
     FM312100 12005KT P6SM VCSH SCT040 BKN250=



000
FTUS44 KLCH 302300
TAFLFT
TAF
KLFT 302320Z 3100/3124 VRB04KT P6SM SKC
     FM312100 12005KT P6SM VCSH SCT040 BKN250=



000
FTUS44 KLCH 302300
TAFBPT
TAF
KBPT 302320Z 3100/3124 15003KT P6SM SCT250
     FM311600 18007KT P6SM VCSH SCT030=



000
FTUS44 KLCH 302300
TAFLCH
TAF
KLCH 302320Z 3100/3124 VRB03KT P6SM SCT250
     FM311600 16007KT P6SM VCSH SCT035=



000
FTUS44 KLCH 301700
TAFLFT
TAF
KLFT 301720Z 3018/3118 VRB04KT P6SM SKC=



000
FTUS44 KLCH 301700
TAFBPT
TAF
KBPT 301720Z 3018/3118 12007KT P6SM SCT040
     FM311200 18007KT P6SM SCT030=



000
FTUS44 KLCH 301700
TAFAEX
TAF
KAEX 301720Z 3018/3118 VRB04KT P6SM BKN200=



000
FTUS44 KLCH 301700
TAFARA
TAF
KARA 301720Z 3018/3118 VRB04KT P6SM SKC=



000
FTUS44 KLCH 301700
TAFLCH
TAF
KLCH 301720Z 3018/3118 10006KT P6SM SKC
     FM310200 VRB03KT P6SM SCT250
     FM311400 18007KT P6SM SCT035=



000
FTUS44 KLCH 301100
TAFARA
TAF
KARA 301133Z 3012/3112 VRB05KT P6SM FEW050
     FM301400 04006KT P6SM SCT050=



000
FTUS44 KLCH 301100
TAFAEX
TAF
KAEX 301133Z 3012/3112 VRB05KT P6SM FEW060
     FM301400 06005KT P6SM FEW060=



000
FTUS44 KLCH 301100
TAFBPT
TAF
KBPT 301133Z 3012/3112 VRB05KT P6SM FEW040
     FM301900 15007KT P6SM SCT050 SCT250=



000
FTUS44 KLCH 301100
TAFLFT
TAF
KLFT 301133Z 3012/3112 VRB05KT P6SM FEW050
     FM301400 04006KT P6SM SCT050=



000
FTUS44 KLCH 301100
TAFLCH
TAF
KLCH 301133Z 3012/3112 VRB05KT P6SM FEW050
     FM302000 15006KT P6SM SCT050 SCT250=



000
FTUS44 KLCH 300500
TAFLFT
TAF
KLFT 300520Z 3006/3106 VRB03KT P6SM FEW050
     FM301400 04006KT P6SM SCT050=



000
FTUS44 KLCH 300500
TAFLCH
TAF
KLCH 300520Z 3006/3106 VRB03KT P6SM FEW050
     FM301400 10006KT P6SM FEW050
     FM302000 15006KT P6SM SCT050 SCT250=



000
FTUS44 KLCH 300500
TAFARA
TAF
KARA 300520Z 3006/3106 VRB03KT P6SM FEW050
     FM301400 04006KT P6SM SCT050=



000
FTUS44 KLCH 300500
TAFBPT
TAF
KBPT 300520Z 3006/3106 VRB03KT P6SM SCT040
     FM301400 10006KT P6SM FEW050
     FM301900 15007KT P6SM SCT050 SCT250=



000
FTUS44 KLCH 300500
TAFAEX
TAF
KAEX 300520Z 3006/3106 VRB03KT P6SM FEW060
     FM301400 06005KT P6SM FEW060=



000
FTUS44 KLCH 292300
TAFARA
TAF
KARA 292320Z 3000/3024 02006KT P6SM FEW050
     FM301400 04006KT P6SM SCT050=



000
FTUS44 KLCH 292300
TAFBPT
TAF
KBPT 292320Z 3000/3024 VRB03KT P6SM SCT040
     FM301400 10006KT P6SM FEW050
     FM301900 15007KT P6SM SCT050 SCT250=



000
FTUS44 KLCH 292300
TAFAEX
TAF
KAEX 292320Z 3000/3024 VRB03KT P6SM FEW060
     FM301400 05005KT P6SM FEW060=



000
FTUS44 KLCH 292300
TAFLFT
TAF
KLFT 292320Z 3000/3024 02003KT P6SM FEW050
     FM301400 04006KT P6SM SCT050=



000
FTUS44 KLCH 292300
TAFLCH
TAF
KLCH 292320Z 3000/3024 05005KT P6SM FEW050
     FM301400 10006KT P6SM SCT050=



000
FTUS44 KLCH 291900 AAA
TAFARA
TAF AMD
KARA 291906Z 2919/3018 04006KT P6SM SCT050 BKN140
     FM300200 02003KT P6SM SCT150=



000
FTUS44 KLCH 291900 AAA
TAFLFT
TAF AMD
KLFT 291904Z 2919/3018 02006KT P6SM SCT040 BKN150
     FM300000 03003KT P6SM SCT150=



000
FTUS44 KLCH 291800 AAA
TAFBPT
TAF AMD
KBPT 291804Z 2918/3018 VRB05KT P6SM SCT045 BKN140
     FM300000 VRB03KT P6SM SCT060 BKN140
     FM300600 01003KT P6SM BKN060 BKN140=



000
FTUS44 KLCH 291700
TAFLCH
TAF
KLCH 291735Z 2918/3018 05006KT P6SM SCT045 BKN140
     FM301400 10006KT P6SM SCT045 SCT140=



000
FTUS44 KLCH 291700
TAFBPT
TAF
KBPT 291735Z 2918/3018 VRB05KT P6SM VCTS SCT023 BKN045CB BKN140
     FM292000 VRB05KT P6SM SCT045 BKN140
     FM300000 VRB03KT P6SM SCT060 BKN140
     FM300600 01003KT P6SM BKN060 BKN140=



000
FTUS44 KLCH 291700
TAFARA
TAF
KARA 291735Z 2918/3018 03006KT P6SM BKN045
     FM300200 02003KT P6SM SCT150=



000
FTUS44 KLCH 291700
TAFLFT
TAF
KLFT 291735Z 2918/3018 02006KT P6SM BKN045
     FM300000 03003KT P6SM SCT150=



000
FTUS44 KLCH 291700
TAFAEX
TAF
KAEX 291735Z 2918/3018 03006KT P6SM SCT035
     FM301200 VRB03KT P6SM SCT100 SCT250=



000
FTUS44 KLCH 291600 AAD
TAFBPT
TAF AMD
KBPT 291625Z 2916/3012 VRB05KT P6SM VCTS SCT023 BKN045CB BKN140
     FM292000 VRB05KT P6SM SCT045 BKN140
     FM300000 VRB03KT P6SM SCT060 BKN140
     FM300600 01003KT P6SM BKN060 BKN140=



000
FTUS44 KLCH 291500 AAC
TAFBPT
TAF AMD
KBPT 291558Z 2916/3012 VRB05KT P6SM VCSH BKN045 BKN140
      TEMPO 2916/2918 2SM SHRA BR BKN023 OVC045
     FM292000 VRB05KT P6SM SCT045 BKN140
     FM300000 VRB03KT P6SM SCT060 BKN140
     FM300600 01003KT P6SM BKN060 BKN140=



000
FTUS44 KLCH 291500 AAB
TAFBPT
TAF AMD
KBPT 291529Z 2915/3012 VRB05KT P6SM VCSH BKN045 BKN140
     FM292000 VRB05KT P6SM SCT045 BKN140
     FM300000 VRB03KT P6SM SCT060 BKN140
     FM300600 01003KT P6SM BKN060 BKN140=



000
FTUS44 KLCH 291500 AAB
TAFLCH
TAF AMD
KLCH 291519Z 2915/3012 07006KT P6SM BKN035 BKN140
     FM291800 33006KT P6SM SCT045 BKN140
     FM292300 VRB03KT P6SM SCT060 SCT140=



000
FTUS44 KLCH 291200 AAA
TAFBPT
TAF AMD
KBPT 291258Z 2913/3012 VRB05KT P6SM SCT027 OVC035
     FM291500 36007KT P6SM SCT035 OVC250
     FM291800 02006KT P6SM VCTS SCT040CB=



000
FTUS44 KLCH 291200 AAA
TAFLCH
TAF AMD
KLCH 291256Z 2913/3012 01004KT P6SM BKN030 OVC250
     FM291800 01006KT P6SM VCSH SCT040=



000
FTUS44 KLCH 291100
TAFLFT
TAF
KLFT 291134Z 2912/3012 36004KT P6SM SCT250
     FM291800 03007KT P6SM SCT045=



000
FTUS44 KLCH 291100
TAFBPT
TAF
KBPT 291134Z 2912/3012 VRB04KT P6SM OVC028
     FM291500 36007KT P6SM OVC250
     FM291800 02006KT P6SM VCTS SCT040CB=



000
FTUS44 KLCH 291100
TAFAEX
TAF
KAEX 291134Z 2912/3012 33004KT P6SM SKC
     FM291700 03006KT P6SM SCT035
     FM292200 35005KT P6SM SKC=



000
FTUS44 KLCH 291100
TAFLCH
TAF
KLCH 291134Z 2912/3012 36004KT P6SM OVC250
     FM291800 01006KT P6SM VCSH SCT040=



000
FTUS44 KLCH 291100
TAFARA
TAF
KARA 291134Z 2912/3012 36004KT P6SM FEW045 SCT060 SCT250
     FM291500 03007KT P6SM SKC=



000
FTUS44 KLCH 291000 AAA
TAFBPT
TAF AMD
KBPT 291054Z 2911/3006 VRB04KT P6SM OVC030
     FM291500 36007KT P6SM OVC250
     FM291800 02006KT P6SM VCTS SCT040CB=



    US Dept of Commerce
    National Oceanic and Atmospheric Administration
    National Weather Service
    1325 East West Highway
    Silver Spring, MD 20910
    Page Author: NWS Internet Services Team
Disclaimer
Information Quality
Credits
Glossary
Privacy Policy
Freedom of Information Act (FOIA)
About Us
Career Opportunities